Huvudsida
METAR-TAF:

METAR-TAF

Flygplatser :

Esbjergs flygplats

Esbjerg, Danmark

latitud: 55-32N, longitud: 008-34E, höjd: 30 m

Aktuellt väderrapport

Denna rapport gjordes för 21 minuter sedan, klockan 17:20 UTC
Vind 18 kt från väst
Temperatur 12°C
Fuktighet 67%
Tryck 1010 hPa
Sikt 10 km eller mer

METAR: EKEB 221720Z AUTO 26018KT 9999NDV BKN041/// 12/06 Q1010

Tid: 19:41 (17:41 UTC)

Väderprognos

Denna rapport gjordes för 28 minuter sedan, klockan 17:13 UTC
Prognos gäller från 22 kl. 18 UTC till 22 kl. 22 UTC
Vind 18 kt från väst
Sikt 10 km eller mer
Spridda moln på en höjd av 3000 ft
Temporärt
från 22 kl. 18 UTC till 22 kl. 22 UTC
Vind 18 kt från väst i byarna ända upp till 28 kt
Spridda moln på en höjd av 2000 ft, Cumulonimbus.
regnskurar

TAF: EKEB 221713Z 2218/2222 26018KT 9999 SCT030 TEMPO 2218/2222 26018G28KT SHRA SCT020CB

Aktuella väderrapporter och prognoser från 4000 flygplatser (METAR- och TAF-rapporter).

De tillgängliga stationerna syns som gula och röda prickar på kartan.

För musen över prickarna för att se namnen på stationerna.

Klicka sedan för att få väderrapporter och prognoser.

För att ändra kartan: Klicka på de gröna knapparna med ett svart kors på för att zooma in; den gröna knappen med ett streck på för att zooma ut; eller på de gröna pilarna för angränsande kartor.


METAR-TAF: